createdAt,value
2022-11-05T00:00:30.004Z,97793.94
2022-11-05T00:03:03.912Z,97790.47
2022-11-05T00:05:37.060Z,97795.88
2022-11-05T00:08:11.929Z,97795.78
2022-11-05T00:21:22.929Z,97810.53
2022-11-05T00:23:56.097Z,97811.28
2022-11-05T00:26:22.628Z,97813.94
2022-11-05T00:29:02.940Z,97817.56
2022-11-05T00:31:36.077Z,97812.97
2022-11-05T00:34:02.733Z,97822.66
2022-11-05T00:36:43.933Z,97817.31
2022-11-05T00:47:13.876Z,97834.63
2022-11-05T00:49:53.911Z,97837.16
2022-11-05T00:52:28.912Z,97840.56
2022-11-05T00:55:03.532Z,97840.56
2022-11-05T00:57:36.939Z,97844.81
2022-11-05T01:00:11.959Z,97838.63
2022-11-05T01:02:45.349Z,97836.91
2022-11-05T01:15:34.887Z,97839.47
2022-11-05T01:18:15.507Z,97842.03
2022-11-05T01:20:49.766Z,97840.31
2022-11-05T01:23:22.908Z,97847.56
2022-11-05T01:25:58.256Z,97841.16
2022-11-05T01:28:30.985Z,97855.53
2022-11-05T01:41:41.932Z,97868.22
2022-11-05T01:44:53.405Z,97873.53
2022-11-05T01:47:48.936Z,97889.41
2022-11-05T01:50:39.849Z,97884.09
2022-11-05T01:53:28.910Z,97897.41
2022-11-05T01:56:07.925Z,97885.88
2022-11-05T02:09:05.877Z,97895.69
2022-11-05T02:11:45.912Z,97893.97
2022-11-05T02:14:21.467Z,97900.16
2022-11-05T02:17:02.903Z,97902.91
2022-11-05T02:20:09.152Z,97910.91
2022-11-05T02:23:46.725Z,97913.56
2022-11-05T02:36:34.912Z,97904.94
2022-11-05T02:39:27.213Z,97904.88
2022-11-05T02:42:18.904Z,97903.25
2022-11-05T02:45:06.705Z,97916.47
2022-11-05T02:47:51.933Z,97912.94
2022-11-05T03:01:07.021Z,97927.19
2022-11-05T03:03:45.973Z,97928.06
2022-11-05T03:07:01.922Z,97931.69
2022-11-05T03:10:06.893Z,97942.31
2022-11-05T03:13:01.932Z,97935.28
2022-11-05T03:15:53.914Z,97959.13
2022-11-05T03:28:25.863Z,97970.09
2022-11-05T03:31:07.932Z,97972.78
2022-11-05T03:33:46.203Z,97974.69
2022-11-05T03:36:39.905Z,97978.28
2022-11-05T03:39:23.892Z,97973.19
2022-11-05T03:42:06.910Z,97971.50
2022-11-05T03:55:18.892Z,97990.00
2022-11-05T03:57:57.873Z,97989.16
2022-11-05T04:00:37.889Z,97994.47
2022-11-05T04:03:11.315Z,98009.56
2022-11-05T04:06:14.034Z,98012.16
2022-11-05T04:08:47.080Z,98014.06
2022-11-05T04:21:35.856Z,98031.91
2022-11-05T04:24:15.916Z,98041.72
2022-11-05T04:26:48.924Z,98042.56
2022-11-05T04:29:15.469Z,98049.59
2022-11-05T04:31:58.147Z,98051.28
2022-11-05T04:34:31.039Z,98051.28
2022-11-05T04:37:05.913Z,98039.78
2022-11-05T04:50:14.908Z,98063.72
2022-11-05T04:52:50.249Z,98076.19
2022-11-05T04:55:23.863Z,98072.56
2022-11-05T04:57:57.067Z,98075.25
2022-11-05T05:00:30.936Z,98079.59
2022-11-05T05:03:03.991Z,98085.88
2022-11-05T05:15:52.863Z,98104.50
2022-11-05T05:18:32.886Z,98107.16
2022-11-05T05:21:06.107Z,98101.72
2022-11-05T05:23:32.656Z,98102.59
2022-11-05T05:26:12.896Z,98119.41
2022-11-05T05:28:45.916Z,98122.91
2022-11-05T05:41:34.840Z,98138.97
2022-11-05T05:44:14.882Z,98132.81
2022-11-05T05:46:48.006Z,98132.81
2022-11-05T05:49:14.691Z,98136.41
2022-11-05T05:51:54.893Z,98134.53
2022-11-05T05:54:32.334Z,98136.31
2022-11-05T05:57:15.899Z,98134.53
2022-11-05T06:10:24.930Z,98146.84
2022-11-05T06:13:01.215Z,98144.28
2022-11-05T06:15:36.229Z,98144.28
2022-11-05T06:18:08.957Z,98138.13
2022-11-05T06:20:41.872Z,98136.41
2022-11-05T06:23:15.061Z,98137.19
2022-11-05T06:36:07.850Z,98163.03
2022-11-05T06:38:47.888Z,98168.34
2022-11-05T06:41:20.930Z,98172.19
2022-11-05T06:43:47.580Z,98181.09
2022-11-05T06:46:27.854Z,98191.75
2022-11-05T07:03:10.040Z,98240.47
2022-11-05T07:05:54.885Z,98237.91
2022-11-05T07:08:31.211Z,98245.91
2022-11-05T07:11:03.856Z,98248.56
2022-11-05T07:13:37.117Z,98252.16
2022-11-05T07:16:10.868Z,98267.16
2022-11-05T07:18:45.837Z,98264.50
2022-11-05T07:28:31.879Z,98279.59
2022-11-05T07:31:05.416Z,98272.50
2022-11-05T07:33:39.595Z,98275.16
2022-11-05T07:36:14.878Z,98284.91
2022-11-05T07:38:47.868Z,98296.44
2022-11-05T07:41:20.909Z,98302.69
2022-11-05T07:43:47.482Z,98311.63
2022-11-05T07:56:44.859Z,98331.78
2022-11-05T07:59:24.897Z,98342.41
2022-11-05T08:01:58.123Z,98332.50
2022-11-05T08:04:31.843Z,98331.56
2022-11-05T08:07:04.940Z,98337.66
2022-11-05T08:23:19.839Z,98357.78
2022-11-05T08:25:53.046Z,98365.56
2022-11-05T08:28:26.870Z,98369.19
2022-11-05T08:30:59.948Z,98373.34
2022-11-05T08:33:26.797Z,98375.91
2022-11-05T08:36:09.902Z,98378.47
2022-11-05T08:38:44.944Z,98382.75
2022-11-05T08:48:45.929Z,98397.66
2022-11-05T08:51:19.009Z,98389.56
2022-11-05T08:53:53.843Z,98394.88
2022-11-05T08:56:26.969Z,98390.41
2022-11-05T08:58:53.589Z,98399.25
2022-11-05T09:01:34.011Z,98398.31
2022-11-05T09:15:28.868Z,98410.91
2022-11-05T09:18:05.059Z,98417.75
2022-11-05T09:20:38.864Z,98421.25
2022-11-05T09:23:13.681Z,98422.88
2022-11-05T09:25:46.841Z,98427.13
2022-11-05T09:28:20.893Z,98428.00
2022-11-05T09:44:46.862Z,98445.31
2022-11-05T09:47:25.579Z,98443.38
2022-11-05T09:50:11.889Z,98446.03
2022-11-05T09:52:45.457Z,98448.69
2022-11-05T09:55:29.858Z,98445.09
2022-11-05T09:58:14.268Z,98444.91
2022-11-05T10:11:21.821Z,98456.00
2022-11-05T10:14:06.845Z,98459.13
2022-11-05T10:16:47.710Z,98450.53
2022-11-05T10:19:32.861Z,98459.56
2022-11-05T10:22:11.955Z,98455.31
2022-11-05T10:35:49.826Z,98457.69
2022-11-05T10:38:30.547Z,98464.22
2022-11-05T10:41:28.757Z,98465.91
2022-11-05T10:44:25.844Z,98472.84
2022-11-05T10:47:23.861Z,98469.88
2022-11-05T11:03:52.862Z,98473.72
2022-11-05T11:06:30.110Z,98482.25
2022-11-05T11:09:23.836Z,98474.56
2022-11-05T11:12:05.776Z,98474.78
2022-11-05T11:14:45.849Z,98472.22
2022-11-05T11:17:28.126Z,98469.41
2022-11-05T11:30:26.814Z,98488.13
2022-11-05T11:33:13.240Z,98497.16
2022-11-05T11:35:47.326Z,98486.91
2022-11-05T11:38:22.852Z,98494.38
2022-11-05T11:41:05.471Z,98487.22
2022-11-05T11:43:48.881Z,98493.41
2022-11-05T11:56:59.847Z,98488.31
2022-11-05T12:00:02.427Z,98491.50
2022-11-05T12:03:08.910Z,98495.56
2022-11-05T12:05:48.111Z,98491.91
2022-11-05T12:08:52.348Z,98493.63
2022-11-05T12:11:42.511Z,98491.91
2022-11-05T12:25:11.796Z,98494.72
2022-11-05T12:28:27.843Z,98501.16
2022-11-05T12:31:21.128Z,98508.41
2022-11-05T12:37:29.843Z,98512.03
2022-11-05T12:50:50.819Z,98520.63
2022-11-05T12:53:40.959Z,98523.41
2022-11-05T12:56:30.887Z,98529.91
2022-11-05T12:59:15.856Z,98519.69
2022-11-05T13:02:01.923Z,98527.06
2022-11-05T13:17:55.822Z,98532.59
2022-11-05T13:20:42.836Z,98533.03
2022-11-05T13:23:25.680Z,98534.50
2022-11-05T13:26:19.349Z,98536.84
2022-11-05T13:29:02.252Z,98545.69
2022-11-05T13:31:46.851Z,98544.34
2022-11-05T13:45:31.912Z,98551.44
2022-11-05T13:48:48.729Z,98553.56
2022-11-05T13:51:53.834Z,98552.31
2022-11-05T13:55:02.137Z,98567.69
2022-11-05T13:58:03.841Z,98561.19
2022-11-05T14:11:29.850Z,98559.78
2022-11-05T14:14:08.335Z,98563.88
2022-11-05T14:16:57.847Z,98570.25
2022-11-05T14:19:49.467Z,98573.25
2022-11-05T14:22:45.841Z,98568.09
2022-11-05T14:36:37.841Z,98580.34
2022-11-05T14:39:30.243Z,98586.69
2022-11-05T14:42:20.869Z,98594.63
2022-11-05T14:45:20.354Z,98590.84
2022-11-05T14:48:04.901Z,98583.50
2022-11-05T14:50:41.416Z,98597.28
2022-11-05T14:53:39.813Z,98593.28
2022-11-05T15:04:21.903Z,98616.00
2022-11-05T15:07:35.825Z,98616.31
2022-11-05T15:10:16.823Z,98619.16
2022-11-05T15:13:01.853Z,98623.84
2022-11-05T15:15:43.936Z,98617.13
2022-11-05T15:18:32.837Z,98620.75
2022-11-05T15:31:45.817Z,98613.47
2022-11-05T15:34:23.554Z,98610.91
2022-11-05T15:37:05.829Z,98611.97
2022-11-05T15:39:41.681Z,98621.78
2022-11-05T15:42:20.821Z,98618.38
2022-11-05T15:59:04.783Z,98615.75
2022-11-05T16:01:58.027Z,98622.13
2022-11-05T16:04:33.813Z,98629.38
2022-11-05T16:07:14.819Z,98632.16
2022-11-05T16:09:56.296Z,98638.53
2022-11-05T16:12:39.812Z,98641.31
2022-11-05T16:25:57.795Z,98641.88
2022-11-05T16:28:30.905Z,98646.47
2022-11-05T16:31:07.800Z,98650.38
2022-11-05T16:33:45.404Z,98655.94
2022-11-05T16:36:25.811Z,98655.25
2022-11-05T16:38:59.276Z,98658.88
2022-11-05T16:51:49.775Z,98667.06
2022-11-05T16:54:41.061Z,98673.31
2022-11-05T16:57:27.121Z,98682.31
2022-11-05T17:00:06.835Z,98684.19
2022-11-05T17:02:40.083Z,98681.72
2022-11-05T17:18:55.835Z,98694.94
2022-11-05T17:21:31.665Z,98700.38
2022-11-05T17:24:04.808Z,98700.75
2022-11-05T17:26:37.955Z,98701.84
2022-11-05T17:29:04.663Z,98697.56
2022-11-05T17:31:45.880Z,98702.91
2022-11-05T17:44:56.821Z,98725.44
2022-11-05T17:47:29.928Z,98723.91
2022-11-05T17:49:56.496Z,98719.63
2022-11-05T17:52:36.803Z,98730.38
2022-11-05T17:55:11.344Z,98733.22
2022-11-05T17:57:45.578Z,98736.84
2022-11-05T18:10:59.813Z,98743.94
2022-11-05T18:13:32.909Z,98752.88
2022-11-05T18:15:59.452Z,98751.25
2022-11-05T18:18:39.804Z,98759.41
2022-11-05T18:21:12.876Z,98756.00
2022-11-05T18:23:39.412Z,98767.75
2022-11-05T18:37:21.785Z,98756.03
2022-11-05T18:40:01.836Z,98760.47
2022-11-05T18:42:35.419Z,98753.44
2022-11-05T18:45:08.843Z,98764.28
2022-11-05T18:47:41.904Z,98761.72
2022-11-05T18:50:15.808Z,98772.41
2022-11-05T18:52:50.844Z,98768.06
2022-11-05T19:05:38.783Z,98768.56
2022-11-05T19:08:20.785Z,98777.69
2022-11-05T19:10:53.853Z,98785.06
2022-11-05T19:13:20.427Z,98783.50
2022-11-05T19:16:00.844Z,98785.31
2022-11-05T19:18:34.257Z,98790.75
2022-11-05T19:31:27.800Z,98799.66
2022-11-05T19:34:08.221Z,98797.94
2022-11-05T19:36:42.763Z,98790.91
2022-11-05T19:39:19.803Z,98793.56
2022-11-05T19:41:53.090Z,98797.75
2022-11-05T19:57:58.784Z,98803.41
2022-11-05T20:00:31.945Z,98803.41
2022-11-05T20:03:06.608Z,98812.34
2022-11-05T20:05:40.008Z,98813.19
2022-11-05T20:08:13.075Z,98807.19
2022-11-05T20:10:46.871Z,98804.72
2022-11-05T20:13:21.777Z,98808.38
2022-11-05T20:26:31.830Z,98810.28
2022-11-05T20:29:06.954Z,98806.75
2022-11-05T20:31:40.810Z,98809.41
2022-11-05T20:34:14.009Z,98816.78
2022-11-05T20:36:40.736Z,98816.78
2022-11-05T20:52:16.783Z,98820.03
2022-11-05T20:54:49.915Z,98818.25
2022-11-05T20:57:16.466Z,98820.13
2022-11-05T20:59:56.811Z,98822.00
2022-11-05T21:02:30.034Z,98832.72
2022-11-05T21:18:45.777Z,98846.41
2022-11-05T21:21:20.248Z,98854.38
2022-11-05T21:23:53.775Z,98852.56
2022-11-05T21:26:27.041Z,98851.56
2022-11-05T21:28:53.672Z,98844.53
2022-11-05T21:31:33.789Z,98837.50
2022-11-05T21:34:09.159Z,98830.47
2022-11-05T21:46:57.754Z,98823.44
2022-11-05T21:49:40.772Z,98822.59
2022-11-05T21:52:13.880Z,98809.34
2022-11-05T21:54:40.422Z,98805.00
2022-11-05T21:57:21.815Z,98800.63
2022-11-05T22:11:17.859Z,98819.66
2022-11-05T22:13:53.430Z,98816.91
2022-11-05T22:16:26.760Z,98813.31
2022-11-05T22:18:59.971Z,98826.59
2022-11-05T22:21:26.611Z,98831.13
2022-11-05T22:24:06.758Z,98819.72
2022-11-05T22:26:41.672Z,98823.38
2022-11-05T22:29:17.779Z,98831.56
2022-11-05T22:39:09.752Z,98833.94
2022-11-05T22:41:49.801Z,98826.91
2022-11-05T22:44:26.586Z,98835.88
2022-11-05T22:47:06.780Z,98838.53
2022-11-05T22:49:40.193Z,98839.41
2022-11-05T22:52:06.734Z,98835.97
2022-11-05T23:05:02.752Z,98827.53
2022-11-05T23:07:43.781Z,98833.81
2022-11-05T23:10:17.184Z,98829.56
2022-11-05T23:12:50.940Z,98837.63
2022-11-05T23:15:23.804Z,98835.91
2022-11-05T23:17:50.335Z,98834.19
2022-11-05T23:31:30.837Z,98838.97
2022-11-05T23:34:11.755Z,98832.81
2022-11-05T23:36:44.804Z,98831.94
2022-11-05T23:39:11.352Z,98839.81
2022-11-05T23:41:51.854Z,98830.06
2022-11-05T23:44:24.969Z,98827.72
2022-11-05T23:46:51.596Z,98834.09
2022-11-05T23:58:49.792Z,98822.25
